createdAt,value
2022-08-09T00:00:23.407Z,4.65
2022-08-09T00:02:52.281Z,4.18
2022-08-09T00:06:16.179Z,4.65
2022-08-09T00:08:11.363Z,4.28
2022-08-09T00:11:06.085Z,4.50
2022-08-09T00:13:50.259Z,4.45
2022-08-09T00:16:26.284Z,4.70
2022-08-09T00:19:09.408Z,4.75
2022-08-09T00:21:56.301Z,4.93
2022-08-09T00:24:27.570Z,4.93
2022-08-09T00:26:55.968Z,5.22
2022-08-09T00:30:09.714Z,5.03
2022-08-09T00:32:12.706Z,5.00
2022-08-09T00:34:39.805Z,5.30
2022-08-09T00:37:18.867Z,4.97
2022-08-09T00:40:13.662Z,4.88
2022-08-09T00:44:13.488Z,5.20
2022-08-09T00:45:21.011Z,4.50
2022-08-09T00:47:48.227Z,4.80
2022-08-09T00:50:15.310Z,4.70
2022-08-09T00:52:42.848Z,4.57
2022-08-09T00:55:32.850Z,4.55
2022-08-09T00:57:59.420Z,4.60
2022-08-09T01:00:28.413Z,5.10
2022-08-09T01:03:20.188Z,4.65
2022-08-09T01:05:53.607Z,4.57
2022-08-09T01:08:35.186Z,4.22
2022-08-09T01:11:55.770Z,4.90
2022-08-09T01:14:31.644Z,4.85
2022-08-09T01:17:10.895Z,4.40
2022-08-09T01:20:01.944Z,5.22
2022-08-09T01:22:55.291Z,5.07
2022-08-09T01:25:51.247Z,5.55
2022-08-09T01:28:22.539Z,6.78
2022-08-09T01:30:59.182Z,7.80
2022-08-09T01:33:34.202Z,7.00
2022-08-09T01:36:08.837Z,7.82
2022-08-09T01:38:46.315Z,7.28
2022-08-09T01:41:26.338Z,7.90
2022-08-09T01:44:00.514Z,8.75
2022-08-09T01:46:47.210Z,8.98
2022-08-09T01:49:18.051Z,9.10
2022-08-09T01:54:48.518Z,8.13
2022-08-09T01:57:40.097Z,6.75
2022-08-09T02:00:35.090Z,10.50
2022-08-09T02:03:03.331Z,7.55
2022-08-09T02:05:37.674Z,7.60
2022-08-09T02:08:39.246Z,6.10
2022-08-09T02:11:17.282Z,4.70
2022-08-09T02:14:06.163Z,5.18
2022-08-09T02:16:52.995Z,4.38
2022-08-09T02:19:38.731Z,4.60
2022-08-09T02:22:35.938Z,4.00
2022-08-09T02:25:15.021Z,4.18
2022-08-09T02:28:00.469Z,5.00
2022-08-09T02:30:43.194Z,4.93
2022-08-09T02:33:23.625Z,4.57
2022-08-09T02:36:26.645Z,4.25
2022-08-09T02:38:56.953Z,5.13
2022-08-09T02:41:49.511Z,7.35
2022-08-09T02:44:29.617Z,7.07
2022-08-09T02:47:04.990Z,8.50
2022-08-09T02:49:41.404Z,6.88
2022-08-09T02:52:15.211Z,6.70
2022-08-09T02:54:53.958Z,5.07
2022-08-09T02:57:25.023Z,5.18
2022-08-09T03:00:25.012Z,5.07
2022-08-09T03:02:58.514Z,4.68
2022-08-09T03:05:34.373Z,5.03
2022-08-09T03:08:04.566Z,5.18
2022-08-09T03:10:34.649Z,5.88
2022-08-09T03:13:02.807Z,5.53
2022-08-09T03:16:04.220Z,5.45
2022-08-09T03:18:30.983Z,5.28
2022-08-09T03:21:00.752Z,5.32
2022-08-09T03:23:29.514Z,4.80
2022-08-09T03:37:55.364Z,6.15
2022-08-09T03:40:24.598Z,4.85
2022-08-09T03:42:51.947Z,5.05
2022-08-09T03:46:05.127Z,5.30
2022-08-09T03:48:06.546Z,5.07
2022-08-09T03:50:36.348Z,5.32
2022-08-09T03:53:07.126Z,5.07
2022-08-09T03:55:40.999Z,4.93
2022-08-09T03:58:16.312Z,5.05
2022-08-09T04:00:45.774Z,5.78
2022-08-09T04:03:24.670Z,5.28
2022-08-09T04:06:04.722Z,5.65
2022-08-09T04:08:33.146Z,5.50
2022-08-09T04:11:01.660Z,5.20
2022-08-09T04:14:37.214Z,5.07
2022-08-09T04:16:20.494Z,4.68
2022-08-09T04:18:50.935Z,5.30
2022-08-09T04:21:19.180Z,6.60
2022-08-09T04:23:54.347Z,5.85
2022-08-09T04:26:25.194Z,6.22
2022-08-09T04:29:10.897Z,5.80
2022-08-09T04:31:47.058Z,5.90
2022-08-09T04:34:19.070Z,5.82
2022-08-09T04:36:57.841Z,5.80
2022-08-09T04:39:24.829Z,5.97
2022-08-09T04:41:59.726Z,7.18
2022-08-09T04:44:29.736Z,20.35
2022-08-09T04:47:04.587Z,6.90
2022-08-09T04:49:53.926Z,5.68
2022-08-09T04:52:26.875Z,5.55
2022-08-09T04:54:57.550Z,5.63
2022-08-09T04:57:26.189Z,5.65
2022-08-09T04:59:55.632Z,5.70
2022-08-09T05:02:27.342Z,5.25
2022-08-09T05:04:55.667Z,6.93
2022-08-09T05:07:24.301Z,10.02
2022-08-09T05:09:51.332Z,7.03
2022-08-09T05:12:18.727Z,7.38
2022-08-09T05:14:49.550Z,8.27
2022-08-09T05:18:38.718Z,7.25
2022-08-09T05:20:08.061Z,7.20
2022-08-09T05:23:50.632Z,4.95
2022-08-09T05:25:24.920Z,4.70
2022-08-09T05:27:55.478Z,5.38
2022-08-09T05:30:22.606Z,4.90
2022-08-09T05:32:50.606Z,4.28
2022-08-09T05:35:18.351Z,4.60
2022-08-09T05:37:51.064Z,4.60
2022-08-09T05:40:18.819Z,4.75
2022-08-09T05:42:46.850Z,5.32
2022-08-09T05:45:14.590Z,4.50
2022-08-09T05:47:51.510Z,4.85
2022-08-09T05:50:30.507Z,4.78
2022-08-09T05:53:11.797Z,5.15
2022-08-09T05:55:53.871Z,5.35
2022-08-09T05:58:21.264Z,5.10
2022-08-09T06:00:48.392Z,4.72
2022-08-09T06:03:19.974Z,4.55
2022-08-09T06:05:57.272Z,4.28
2022-08-09T06:08:32.100Z,4.40
2022-08-09T06:10:59.344Z,4.38
2022-08-09T06:13:33.890Z,4.68
2022-08-09T06:16:04.852Z,4.32
2022-08-09T06:18:32.983Z,4.00
2022-08-09T06:21:04.354Z,4.10
2022-08-09T06:23:57.135Z,4.05
2022-08-09T06:26:22.685Z,4.13
2022-08-09T06:29:00.481Z,4.18
2022-08-09T06:31:31.512Z,4.30
2022-08-09T06:34:07.251Z,4.38
2022-08-09T06:36:34.461Z,4.43
2022-08-09T06:39:02.709Z,4.35
2022-08-09T06:42:06.404Z,4.07
2022-08-09T06:44:23.749Z,3.65
2022-08-09T06:46:55.171Z,3.90
2022-08-09T06:49:44.909Z,3.92
2022-08-09T06:52:12.114Z,4.00
2022-08-09T06:54:43.306Z,3.53
2022-08-09T07:08:26.401Z,3.42
2022-08-09T07:10:58.656Z,3.55
2022-08-09T07:13:28.129Z,3.30
2022-08-09T07:16:42.915Z,3.20
2022-08-09T07:18:47.346Z,3.10
2022-08-09T07:21:17.281Z,3.10
2022-08-09T07:23:56.707Z,3.17
2022-08-09T07:26:25.631Z,3.20
2022-08-09T07:29:09.288Z,3.08
2022-08-09T07:31:45.544Z,4.28
2022-08-09T07:34:20.476Z,4.50
2022-08-09T07:36:49.443Z,3.70
2022-08-09T07:39:20.481Z,3.65
2022-08-09T07:42:06.276Z,3.90
2022-08-09T07:44:52.511Z,4.38
2022-08-09T07:47:23.254Z,3.85
2022-08-09T07:49:52.264Z,4.18
2022-08-09T07:52:36.576Z,4.68
2022-08-09T07:55:09.500Z,4.20
2022-08-09T07:57:47.383Z,3.33
2022-08-09T08:00:36.661Z,3.22
2022-08-09T08:03:09.757Z,3.90
2022-08-09T08:05:39.074Z,3.58
2022-08-09T08:09:01.360Z,3.42
2022-08-09T08:12:12.092Z,3.70
2022-08-09T08:13:57.269Z,3.90
2022-08-09T08:16:31.721Z,3.60
2022-08-09T08:19:02.976Z,3.45
2022-08-09T08:21:32.406Z,3.53
2022-08-09T08:24:01.321Z,3.65
2022-08-09T08:26:54.902Z,3.83
2022-08-09T08:29:27.870Z,3.42
2022-08-09T08:32:04.331Z,3.60
2022-08-09T08:34:34.532Z,2.97
2022-08-09T08:37:04.207Z,3.45
2022-08-09T08:39:39.838Z,3.50
2022-08-09T08:42:12.585Z,3.60
2022-08-09T08:44:42.778Z,3.25
2022-08-09T08:47:13.463Z,3.30
2022-08-09T08:49:47.888Z,2.97
2022-08-09T08:55:15.255Z,3.28
2022-08-09T08:57:57.528Z,2.38
2022-08-09T09:00:34.471Z,3.97
2022-08-09T09:03:11.694Z,2.53
2022-08-09T09:06:01.199Z,2.30
2022-08-09T09:08:42.171Z,2.55
2022-08-09T09:11:13.844Z,2.65
2022-08-09T09:13:56.489Z,3.00
2022-08-09T09:16:34.498Z,3.90
2022-08-09T09:19:37.814Z,3.40
2022-08-09T09:22:13.838Z,3.20
2022-08-09T09:25:08.578Z,3.00
2022-08-09T09:28:04.331Z,3.00
2022-08-09T09:30:40.722Z,3.05
2022-08-09T09:33:15.625Z,4.32
2022-08-09T09:36:03.366Z,3.20
2022-08-09T09:38:57.264Z,2.92
2022-08-09T09:41:26.065Z,3.08
2022-08-09T09:44:12.925Z,3.25
2022-08-09T09:46:52.060Z,3.05
2022-08-09T09:49:56.417Z,3.83
2022-08-09T09:52:16.396Z,3.10
2022-08-09T09:55:23.858Z,3.13
2022-08-09T09:58:17.346Z,3.22
2022-08-09T10:00:59.051Z,3.30
2022-08-09T10:03:57.337Z,3.30
2022-08-09T10:06:42.944Z,3.40
2022-08-09T10:09:22.204Z,3.10
2022-08-09T10:12:15.068Z,2.90
2022-08-09T10:14:51.775Z,3.28
2022-08-09T10:17:40.147Z,2.65
2022-08-09T10:20:26.635Z,3.00
2022-08-09T10:23:12.408Z,2.90
2022-08-09T10:26:07.916Z,2.85
2022-08-09T10:28:34.546Z,2.90
2022-08-09T10:34:10.674Z,2.90
2022-08-09T10:36:39.982Z,2.97
2022-08-09T10:39:15.812Z,3.10
2022-08-09T10:41:47.792Z,2.88
2022-08-09T10:44:21.826Z,2.80
2022-08-09T10:48:13.165Z,2.58
2022-08-09T10:50:31.339Z,3.38
2022-08-09T10:53:27.795Z,2.78
2022-08-09T10:56:24.206Z,2.60
2022-08-09T11:03:14.130Z,3.03
2022-08-09T11:04:32.503Z,2.78
2022-08-09T11:07:01.047Z,2.88
2022-08-09T11:09:47.813Z,3.28
2022-08-09T11:12:26.634Z,2.75
2022-08-09T11:15:24.336Z,2.65
2022-08-09T11:18:03.655Z,2.60
2022-08-09T11:20:50.468Z,2.50
2022-08-09T11:23:23.886Z,2.90
2022-08-09T11:25:51.428Z,3.40
2022-08-09T11:28:55.960Z,2.80
2022-08-09T11:31:49.760Z,2.88
2022-08-09T11:36:59.744Z,2.75
2022-08-09T11:39:33.582Z,4.03
2022-08-09T11:42:14.731Z,3.35
2022-08-09T11:44:48.378Z,3.13
2022-08-09T11:47:16.019Z,3.30
2022-08-09T11:50:55.103Z,3.25
2022-08-09T11:53:15.819Z,3.42
2022-08-09T11:55:53.837Z,3.55
2022-08-09T11:58:33.219Z,3.50
2022-08-09T12:01:15.719Z,3.63
2022-08-09T12:04:06.130Z,3.15
2022-08-09T12:06:35.069Z,3.97
2022-08-09T12:09:19.647Z,3.30
2022-08-09T12:12:20.613Z,4.50
2022-08-09T12:15:08.494Z,3.10
2022-08-09T12:17:45.709Z,3.78
2022-08-09T12:20:23.915Z,2.70
2022-08-09T12:23:03.529Z,3.00
2022-08-09T12:25:37.240Z,25.45
2022-08-09T12:29:15.213Z,3.90
2022-08-09T12:31:58.665Z,3.20
2022-08-09T12:34:13.056Z,6.68
2022-08-09T12:36:59.092Z,3.13
2022-08-09T12:39:41.727Z,4.32
2022-08-09T12:42:16.407Z,3.35
2022-08-09T12:44:46.413Z,3.00
2022-08-09T12:47:23.313Z,3.10
2022-08-09T12:50:09.303Z,3.22
2022-08-09T12:53:09.130Z,5.72
2022-08-09T12:56:14.458Z,7.95
2022-08-09T12:58:24.386Z,3.20
2022-08-09T13:00:55.053Z,2.90
2022-08-09T13:03:53.123Z,2.90
2022-08-09T13:06:34.451Z,4.22
2022-08-09T13:09:13.006Z,3.28
2022-08-09T13:11:45.412Z,2.72
2022-08-09T13:14:42.753Z,2.63
2022-08-09T13:17:44.503Z,3.00
2022-08-09T13:20:12.630Z,2.60
2022-08-09T13:23:04.871Z,3.72
2022-08-09T13:25:52.906Z,2.80
2022-08-09T13:28:34.670Z,2.50
2022-08-09T13:32:15.121Z,11.10
2022-08-09T13:33:54.987Z,2.50
2022-08-09T13:36:41.414Z,2.65
2022-08-09T13:41:19.499Z,5.78
2022-08-09T13:42:12.965Z,2.65
2022-08-09T13:44:43.248Z,2.60
2022-08-09T13:47:26.649Z,2.35
2022-08-09T13:50:08.731Z,2.55
2022-08-09T13:52:46.055Z,2.50
2022-08-09T13:55:17.831Z,2.10
2022-08-09T13:57:55.887Z,13.20
2022-08-09T14:00:28.574Z,2.00
2022-08-09T14:03:03.188Z,1.92
2022-08-09T14:05:59.260Z,2.20
2022-08-09T14:08:31.616Z,4.60
2022-08-09T14:11:00.566Z,2.50
2022-08-09T14:14:23.709Z,2.42
2022-08-09T14:16:20.016Z,3.20
2022-08-09T14:18:58.205Z,2.08
2022-08-09T14:21:29.627Z,2.10
2022-08-09T14:24:05.581Z,2.95
2022-08-09T14:26:51.276Z,3.10
2022-08-09T14:30:15.170Z,2.30
2022-08-09T14:32:13.155Z,2.03
2022-08-09T14:34:43.533Z,2.42
2022-08-09T14:37:12.471Z,1.98
2022-08-09T14:39:47.817Z,1.88
2022-08-09T14:42:29.060Z,2.30
2022-08-09T14:46:39.536Z,2.00
2022-08-09T14:48:00.394Z,2.10
2022-08-09T14:50:37.019Z,2.40
2022-08-09T14:53:11.624Z,2.22
2022-08-09T14:55:48.092Z,3.50
2022-08-09T14:58:17.845Z,2.45
2022-08-09T15:00:48.212Z,2.50
2022-08-09T15:03:20.398Z,2.58
2022-08-09T15:05:50.230Z,2.40
2022-08-09T15:08:23.782Z,2.65
2022-08-09T15:11:01.055Z,2.15
2022-08-09T15:13:48.623Z,2.55
2022-08-09T15:16:19.774Z,2.53
2022-08-09T15:18:48.961Z,3.38
2022-08-09T15:21:55.920Z,2.35
2022-08-09T15:24:13.926Z,2.92
2022-08-09T15:26:46.770Z,2.90
2022-08-09T15:30:49.971Z,4.25
2022-08-09T15:32:02.183Z,2.88
2022-08-09T15:34:34.278Z,2.67
2022-08-09T15:37:23.468Z,2.50
2022-08-09T15:39:53.841Z,6.18
2022-08-09T15:42:22.240Z,2.25
2022-08-09T15:44:50.439Z,2.90
2022-08-09T15:47:22.452Z,4.05
2022-08-09T15:50:03.464Z,2.53
2022-08-09T15:52:36.382Z,2.40
2022-08-09T15:55:06.388Z,2.50
2022-08-09T15:57:44.378Z,2.40
2022-08-09T16:00:26.243Z,2.42
2022-08-09T16:02:56.125Z,3.65
2022-08-09T16:05:47.193Z,2.25
2022-08-09T16:08:30.716Z,3.37
2022-08-09T16:11:01.516Z,2.20
2022-08-09T16:14:05.884Z,2.15
2022-08-09T16:16:18.606Z,2.22
2022-08-09T16:18:47.439Z,2.83
2022-08-09T16:21:16.783Z,2.35
2022-08-09T16:23:50.662Z,2.53
2022-08-09T16:26:35.317Z,5.50
2022-08-09T16:29:11.244Z,2.22
2022-08-09T16:32:18.213Z,2.30
2022-08-09T16:34:56.513Z,2.63
2022-08-09T16:37:50.595Z,2.70
2022-08-09T16:40:10.466Z,2.33
2022-08-09T16:42:39.021Z,2.70
2022-08-09T16:45:17.559Z,2.70
2022-08-09T16:48:39.725Z,2.85
2022-08-09T16:50:38.536Z,2.55
2022-08-09T16:53:06.683Z,2.20
2022-08-09T16:55:58.890Z,2.80
2022-08-09T16:58:24.153Z,2.70
2022-08-09T17:00:51.310Z,2.60
2022-08-09T17:03:22.278Z,3.03
2022-08-09T17:06:07.687Z,2.55
2022-08-09T17:09:02.967Z,2.95
2022-08-09T17:11:33.037Z,2.08
2022-08-09T17:14:25.802Z,5.18
2022-08-09T17:17:23.340Z,3.40
2022-08-09T17:20:28.517Z,2.85
2022-08-09T17:22:51.650Z,3.10
2022-08-09T17:25:22.021Z,3.72
2022-08-09T17:27:54.314Z,3.15
2022-08-09T17:30:28.882Z,28.92
2022-08-09T17:33:05.273Z,4.35
2022-08-09T17:35:46.618Z,4.30
2022-08-09T17:38:32.110Z,3.90
2022-08-09T17:41:03.033Z,3.78
2022-08-09T17:43:33.538Z,3.78
2022-08-09T17:46:06.994Z,3.50
2022-08-09T17:48:39.066Z,3.90
2022-08-09T17:51:18.150Z,5.00
2022-08-09T17:53:53.308Z,11.38
2022-08-09T17:56:35.480Z,4.18
2022-08-09T17:59:09.254Z,4.68
2022-08-09T18:01:57.821Z,3.40
2022-08-09T18:04:26.327Z,3.35
2022-08-09T18:06:55.100Z,3.40
2022-08-09T18:09:40.090Z,4.03
2022-08-09T18:12:17.957Z,3.42
2022-08-09T18:14:53.617Z,3.85
2022-08-09T18:18:02.628Z,3.47
2022-08-09T18:20:54.253Z,4.90
2022-08-09T18:23:05.564Z,4.60
2022-08-09T18:25:50.301Z,5.82
2022-08-09T18:30:36.240Z,3.97
2022-08-09T18:31:07.069Z,3.65
2022-08-09T18:33:34.700Z,4.00
2022-08-09T18:36:02.110Z,4.50
2022-08-09T18:38:30.244Z,4.63
2022-08-09T18:40:59.340Z,6.35
2022-08-09T18:43:27.355Z,8.52
2022-08-09T18:46:49.263Z,19.90
2022-08-09T18:48:51.231Z,18.92
2022-08-09T18:51:18.436Z,16.33
2022-08-09T18:54:06.576Z,8.55
2022-08-09T18:56:43.561Z,5.85
2022-08-09T18:59:21.008Z,5.38
2022-08-09T19:01:48.303Z,5.30
2022-08-09T19:04:17.590Z,6.90
2022-08-09T19:07:02.235Z,6.50
2022-08-09T19:10:14.814Z,8.05
2022-08-09T19:12:21.153Z,8.75
2022-08-09T19:14:51.408Z,10.50
2022-08-09T19:17:20.190Z,9.60
2022-08-09T19:19:48.612Z,12.35
2022-08-09T19:22:17.516Z,9.98
2022-08-09T19:25:09.882Z,8.80
2022-08-09T19:27:36.014Z,8.68
2022-08-09T19:30:22.307Z,12.02
2022-08-09T19:32:58.506Z,12.30
2022-08-09T19:35:26.764Z,5.53
2022-08-09T19:37:57.717Z,6.93
2022-08-09T19:40:34.188Z,6.05
2022-08-09T19:43:09.967Z,9.80
2022-08-09T19:45:42.217Z,8.15
2022-08-09T19:48:11.058Z,7.75
2022-08-09T19:50:51.450Z,48.50
2022-08-09T19:53:22.207Z,63.22
2022-08-09T19:56:02.973Z,25.87
2022-08-09T19:58:34.957Z,18.77
2022-08-09T20:01:03.597Z,12.63
2022-08-09T20:04:10.620Z,5.25
2022-08-09T20:06:23.527Z,5.53
2022-08-09T20:08:57.582Z,5.28
2022-08-09T20:11:43.029Z,6.07
2022-08-09T20:14:16.456Z,6.28
2022-08-09T20:16:53.658Z,5.03
2022-08-09T20:19:48.775Z,5.55
2022-08-09T20:22:14.184Z,5.22
2022-08-09T20:24:54.051Z,5.10
2022-08-09T20:27:22.156Z,7.22
2022-08-09T20:29:49.831Z,11.93
2022-08-09T20:32:29.689Z,10.45
2022-08-09T20:35:06.294Z,6.65
2022-08-09T20:37:37.980Z,5.60
2022-08-09T20:40:27.563Z,5.13
2022-08-09T20:43:00.048Z,5.28
2022-08-09T20:46:01.975Z,5.60
2022-08-09T20:48:34.582Z,5.13
2022-08-09T20:51:03.105Z,6.45
2022-08-09T20:53:37.225Z,6.57
2022-08-09T20:56:21.107Z,6.40
2022-08-09T21:01:34.175Z,5.35
2022-08-09T21:05:49.755Z,5.55
2022-08-09T21:06:52.348Z,5.68
2022-08-09T21:09:32.843Z,5.97
2022-08-09T21:14:40.655Z,6.20
2022-08-09T21:18:22.019Z,6.53
2022-08-09T21:20:17.042Z,6.20
2022-08-09T21:22:53.891Z,6.15
2022-08-09T21:25:43.990Z,7.43
2022-08-09T21:28:33.270Z,6.97
2022-08-09T21:31:16.110Z,7.20
2022-08-09T21:33:52.754Z,9.48
2022-08-09T21:36:28.173Z,6.30
2022-08-09T21:38:59.941Z,5.97
2022-08-09T21:42:03.782Z,6.82
2022-08-09T21:44:34.625Z,6.87
2022-08-09T21:47:08.622Z,6.15
2022-08-09T21:49:42.966Z,5.43
2022-08-09T21:52:16.362Z,5.45
2022-08-09T21:55:03.181Z,5.53
2022-08-09T21:57:58.758Z,5.32
2022-08-09T22:00:32.193Z,6.03
2022-08-09T22:03:06.803Z,5.80
2022-08-09T22:05:42.050Z,5.88
2022-08-09T22:08:14.617Z,5.70
2022-08-09T22:11:00.552Z,6.30
2022-08-09T22:13:36.985Z,4.97
2022-08-09T22:16:08.871Z,5.97
2022-08-09T22:18:53.453Z,5.93
2022-08-09T22:21:44.838Z,5.88
2022-08-09T22:24:17.095Z,6.57
2022-08-09T22:26:51.539Z,6.20
2022-08-09T22:29:25.563Z,5.70
2022-08-09T22:31:57.989Z,5.45
2022-08-09T22:34:28.692Z,5.53
2022-08-09T22:36:58.496Z,6.10
2022-08-09T22:39:57.228Z,5.60
2022-08-09T22:42:22.181Z,5.53
2022-08-09T22:48:04.686Z,5.20
2022-08-09T22:48:33.736Z,5.10
2022-08-09T22:50:31.848Z,5.95
2022-08-09T22:53:04.343Z,5.63
2022-08-09T22:56:06.375Z,5.80
2022-08-09T22:58:20.175Z,5.90
2022-08-09T23:01:00.706Z,7.60
2022-08-09T23:04:04.418Z,7.60
2022-08-09T23:06:32.573Z,7.25
2022-08-09T23:09:07.489Z,9.13
2022-08-09T23:11:35.051Z,6.78
2022-08-09T23:14:03.698Z,6.82
2022-08-09T23:16:31.753Z,8.30
2022-08-09T23:18:58.863Z,7.93
2022-08-09T23:21:30.088Z,7.57
2022-08-09T23:24:06.408Z,7.07
2022-08-09T23:26:39.289Z,6.80
2022-08-09T23:29:13.455Z,6.80
2022-08-09T23:31:41.577Z,7.15
2022-08-09T23:34:09.289Z,8.00
2022-08-09T23:36:37.039Z,7.45
2022-08-09T23:39:09.360Z,7.05
2022-08-09T23:41:36.924Z,7.78
2022-08-09T23:44:04.602Z,9.80
2022-08-09T23:46:33.298Z,8.50
2022-08-09T23:49:00.787Z,8.80
2022-08-09T23:51:28.917Z,8.68
2022-08-09T23:54:02.964Z,8.93
2022-08-09T23:56:52.809Z,8.90
2022-08-09T23:59:21.389Z,8.02
